sensor_id;sensor_type;location;lat;lon;timestamp;temperature;humidity
20081;DHT22;10200;49.232;9.222;2024-03-23T00:53:42;10.90;99.90
20081;DHT22;10200;49.232;9.222;2024-03-23T00:56:07;10.90;99.90
20081;DHT22;10200;49.232;9.222;2024-03-23T00:58:33;10.90;99.90
20081;DHT22;10200;49.232;9.222;2024-03-23T01:00:58;10.90;99.90
20081;DHT22;10200;49.232;9.222;2024-03-23T01:03:24;10.90;99.90
20081;DHT22;10200;49.232;9.222;2024-03-23T01:05:49;10.90;99.90
20081;DHT22;10200;49.232;9.222;2024-03-23T01:08:15;11.00;99.90
20081;DHT22;10200;49.232;9.222;2024-03-23T01:10:40;10.90;99.90
20081;DHT22;10200;49.232;9.222;2024-03-23T01:13:06;10.90;99.90
20081;DHT22;10200;49.232;9.222;2024-03-23T01:15:32;11.00;99.90
20081;DHT22;10200;49.232;9.222;2024-03-23T01:17:57;10.90;99.90
20081;DHT22;10200;49.232;9.222;2024-03-23T01:20:23;10.90;99.90
20081;DHT22;10200;49.232;9.222;2024-03-23T01:22:48;10.90;99.90
20081;DHT22;10200;49.232;9.222;2024-03-23T01:25:14;10.90;99.90
20081;DHT22;10200;49.232;9.222;2024-03-23T01:27:40;11.00;99.90
20081;DHT22;10200;49.232;9.222;2024-03-23T01:30:06;10.90;99.90
20081;DHT22;10200;49.232;9.222;2024-03-23T01:32:32;10.90;99.90
20081;DHT22;10200;49.232;9.222;2024-03-23T01:34:58;10.90;99.90
20081;DHT22;10200;49.232;9.222;2024-03-23T01:37:23;10.90;99.90
20081;DHT22;10200;49.232;9.222;2024-03-23T01:39:50;10.90;99.90
20081;DHT22;10200;49.232;9.222;2024-03-23T01:42:16;10.90;99.90
20081;DHT22;10200;49.232;9.222;2024-03-23T01:44:42;10.90;99.90
20081;DHT22;10200;49.232;9.222;2024-03-23T01:47:07;10.80;99.90
20081;DHT22;10200;49.232;9.222;2024-03-23T01:49:33;10.80;99.90
20081;DHT22;10200;49.232;9.222;2024-03-23T01:51:59;10.80;99.90
20081;DHT22;10200;49.232;9.222;2024-03-23T01:54:25;10.70;99.90
20081;DHT22;10200;49.232;9.222;2024-03-23T01:56:51;10.70;99.90
20081;DHT22;10200;49.232;9.222;2024-03-23T01:59:16;10.60;99.90
20081;DHT22;10200;49.232;9.222;2024-03-23T02:01:42;10.60;99.90
20081;DHT22;10200;49.232;9.222;2024-03-23T02:04:07;10.50;99.90
20081;DHT22;10200;49.232;9.222;2024-03-23T02:06:35;10.40;99.90
20081;DHT22;10200;49.232;9.222;2024-03-23T02:09:00;10.40;99.90
20081;DHT22;10200;49.232;9.222;2024-03-23T02:11:26;10.40;99.90
20081;DHT22;10200;49.232;9.222;2024-03-23T02:13:52;10.40;99.90
20081;DHT22;10200;49.232;9.222;2024-03-23T02:16:17;10.40;99.90
20081;DHT22;10200;49.232;9.222;2024-03-23T02:18:43;10.40;99.90
20081;DHT22;10200;49.232;9.222;2024-03-23T02:21:08;10.30;99.90
20081;DHT22;10200;49.232;9.222;2024-03-23T02:23:34;10.30;99.90
20081;DHT22;10200;49.232;9.222;2024-03-23T02:26:00;10.20;99.90
20081;DHT22;10200;49.232;9.222;2024-03-23T02:28:25;10.20;99.90
20081;DHT22;10200;49.232;9.222;2024-03-23T02:30:51;10.10;99.90
20081;DHT22;10200;49.232;9.222;2024-03-23T02:33:17;10.10;99.90
20081;DHT22;10200;49.232;9.222;2024-03-23T02:35:47;10.10;99.90
20081;DHT22;10200;49.232;9.222;2024-03-23T02:38:12;10.20;99.90
20081;DHT22;10200;49.232;9.222;2024-03-23T02:40:38;10.20;99.90
20081;DHT22;10200;49.232;9.222;2024-03-23T02:43:04;10.20;99.90
20081;DHT22;10200;49.232;9.222;2024-03-23T02:45:30;10.20;99.90
20081;DHT22;10200;49.232;9.222;2024-03-23T02:47:56;10.20;99.90
20081;DHT22;10200;49.232;9.222;2024-03-23T02:50:22;10.20;99.90
20081;DHT22;10200;49.232;9.222;2024-03-23T02:52:48;10.30;99.90
20081;DHT22;10200;49.232;9.222;2024-03-23T02:55:14;10.30;99.90
20081;DHT22;10200;49.232;9.222;2024-03-23T02:57:40;10.40;99.90
20081;DHT22;10200;49.232;9.222;2024-03-23T03:00:06;10.50;99.90
20081;DHT22;10200;49.232;9.222;2024-03-23T03:02:32;10.50;99.90
20081;DHT22;10200;49.232;9.222;2024-03-23T03:04:58;10.60;99.90
20081;DHT22;10200;49.232;9.222;2024-03-23T03:07:24;10.60;99.90
20081;DHT22;10200;49.232;9.222;2024-03-23T03:09:49;10.70;99.90
20081;DHT22;10200;49.232;9.222;2024-03-23T03:12:15;10.70;99.90
20081;DHT22;10200;49.232;9.222;2024-03-23T03:14:40;10.70;99.90
20081;DHT22;10200;49.232;9.222;2024-03-23T03:17:06;10.70;99.90
20081;DHT22;10200;49.232;9.222;2024-03-23T03:19:32;10.70;99.90
20081;DHT22;10200;49.232;9.222;2024-03-23T03:21:57;10.70;99.90
20081;DHT22;10200;49.232;9.222;2024-03-23T03:24:23;10.80;99.90
20081;DHT22;10200;49.232;9.222;2024-03-23T03:26:49;10.80;99.90
20081;DHT22;10200;49.232;9.222;2024-03-23T03:29:15;10.90;99.90
20081;DHT22;10200;49.232;9.222;2024-03-23T03:31:41;10.90;99.90
20081;DHT22;10200;49.232;9.222;2024-03-23T03:34:07;10.90;99.90
20081;DHT22;10200;49.232;9.222;2024-03-23T03:36:32;10.90;99.90
20081;DHT22;10200;49.232;9.222;2024-03-23T03:38:58;10.90;99.90
20081;DHT22;10200;49.232;9.222;2024-03-23T03:41:24;11.00;99.90
20081;DHT22;10200;49.232;9.222;2024-03-23T03:43:49;11.00;99.90
20081;DHT22;10200;49.232;9.222;2024-03-23T03:46:15;11.10;99.90
20081;DHT22;10200;49.232;9.222;2024-03-23T03:48:40;11.20;99.90
20081;DHT22;10200;49.232;9.222;2024-03-23T03:51:06;11.30;99.90
20081;DHT22;10200;49.232;9.222;2024-03-23T03:53:31;11.50;99.90
20081;DHT22;10200;49.232;9.222;2024-03-23T03:56:01;11.60;99.90
20081;DHT22;10200;49.232;9.222;2024-03-23T03:58:27;11.70;99.90
20081;DHT22;10200;49.232;9.222;2024-03-23T04:00:53;11.90;99.90
20081;DHT22;10200;49.232;9.222;2024-03-23T04:03:18;12.00;99.90
20081;DHT22;10200;49.232;9.222;2024-03-23T04:05:53;12.00;99.90
20081;DHT22;10200;49.232;9.222;2024-03-23T04:08:19;12.10;99.90
20081;DHT22;10200;49.232;9.222;2024-03-23T04:10:45;12.20;99.90
20081;DHT22;10200;49.232;9.222;2024-03-23T04:13:12;12.20;99.90
20081;DHT22;10200;49.232;9.222;2024-03-23T04:15:38;12.30;99.90
20081;DHT22;10200;49.232;9.222;2024-03-23T04:18:03;12.30;99.90
20081;DHT22;10200;49.232;9.222;2024-03-23T04:20:29;12.50;99.90
20081;DHT22;10200;49.232;9.222;2024-03-23T04:22:55;12.70;99.90
20081;DHT22;10200;49.232;9.222;2024-03-23T04:25:20;12.40;99.90
20081;DHT22;10200;49.232;9.222;2024-03-23T04:27:46;13.10;99.90
20081;DHT22;10200;49.232;9.222;2024-03-23T04:30:12;12.20;99.90
20081;DHT22;10200;49.232;9.222;2024-03-23T04:32:38;12.60;99.90
20081;DHT22;10200;49.232;9.222;2024-03-23T04:35:04;12.60;99.90
20081;DHT22;10200;49.232;9.222;2024-03-23T04:37:35;12.60;99.90
20081;DHT22;10200;49.232;9.222;2024-03-23T04:40:02;12.70;99.90
20081;DHT22;10200;49.232;9.222;2024-03-23T04:42:29;12.70;99.90
20081;DHT22;10200;49.232;9.222;2024-03-23T04:44:54;12.70;99.90
20081;DHT22;10200;49.232;9.222;2024-03-23T04:47:20;12.70;99.90
20081;DHT22;10200;49.232;9.222;2024-03-23T04:49:46;12.70;99.90
20081;DHT22;10200;49.232;9.222;2024-03-23T04:52:11;12.70;99.90
20081;DHT22;10200;49.232;9.222;2024-03-23T04:54:37;12.70;99.90
20081;DHT22;10200;49.232;9.222;2024-03-23T04:57:03;12.70;99.90
20081;DHT22;10200;49.232;9.222;2024-03-23T04:59:30;12.70;99.90
20081;DHT22;10200;49.232;9.222;2024-03-23T05:01:56;12.80;99.90
20081;DHT22;10200;49.232;9.222;2024-03-23T05:04:21;12.60;99.90
20081;DHT22;10200;49.232;9.222;2024-03-23T05:06:47;12.60;99.90
20081;DHT22;10200;49.232;9.222;2024-03-23T05:09:12;12.70;99.90
20081;DHT22;10200;49.232;9.222;2024-03-23T05:11:38;12.60;99.90
20081;DHT22;10200;49.232;9.222;2024-03-23T05:14:04;12.70;99.90
20081;DHT22;10200;49.232;9.222;2024-03-23T05:16:30;12.70;99.90
20081;DHT22;10200;49.232;9.222;2024-03-23T05:18:55;12.60;99.90
20081;DHT22;10200;49.232;9.222;2024-03-23T05:21:21;12.60;99.90
20081;DHT22;10200;49.232;9.222;2024-03-23T05:23:47;12.60;99.90
20081;DHT22;10200;49.232;9.222;2024-03-23T05:26:13;12.60;99.90
20081;DHT22;10200;49.232;9.222;2024-03-23T05:28:39;12.60;99.90
20081;DHT22;10200;49.232;9.222;2024-03-23T05:31:04;12.60;99.90
20081;DHT22;10200;49.232;9.222;2024-03-23T05:33:30;12.50;99.90
20081;DHT22;10200;49.232;9.222;2024-03-23T05:35:57;12.50;99.90
20081;DHT22;10200;49.232;9.222;2024-03-23T05:38:23;12.40;99.90
20081;DHT22;10200;49.232;9.222;2024-03-23T05:40:55;12.40;99.90
20081;DHT22;10200;49.232;9.222;2024-03-23T05:43:21;12.40;99.90
20081;DHT22;10200;49.232;9.222;2024-03-23T05:45:54;12.20;99.90
20081;DHT22;10200;49.232;9.222;2024-03-23T05:48:19;12.20;99.90
20081;DHT22;10200;49.232;9.222;2024-03-23T05:50:45;12.20;99.90
20081;DHT22;10200;49.232;9.222;2024-03-23T05:53:10;12.20;99.90
20081;DHT22;10200;49.232;9.222;2024-03-23T05:55:38;12.10;99.90
20081;DHT22;10200;49.232;9.222;2024-03-23T05:58:03;12.10;99.90
20081;DHT22;10200;49.232;9.222;2024-03-23T06:00:29;12.10;99.90
20081;DHT22;10200;49.232;9.222;2024-03-23T06:02:55;12.10;99.90
20081;DHT22;10200;49.232;9.222;2024-03-23T06:05:20;12.00;99.90
20081;DHT22;10200;49.232;9.222;2024-03-23T06:07:46;12.00;99.90
20081;DHT22;10200;49.232;9.222;2024-03-23T06:10:11;11.90;99.90
20081;DHT22;10200;49.232;9.222;2024-03-23T06:12:37;12.10;99.90
20081;DHT22;10200;49.232;9.222;2024-03-23T06:15:03;11.90;99.90
20081;DHT22;10200;49.232;9.222;2024-03-23T06:17:29;11.80;99.90
20081;DHT22;10200;49.232;9.222;2024-03-23T06:19:54;11.80;99.90
20081;DHT22;10200;49.232;9.222;2024-03-23T06:22:20;11.80;99.90
20081;DHT22;10200;49.232;9.222;2024-03-23T06:24:46;11.80;99.90
20081;DHT22;10200;49.232;9.222;2024-03-23T06:27:11;11.80;99.90
20081;DHT22;10200;49.232;9.222;2024-03-23T06:29:37;11.70;99.90
20081;DHT22;10200;49.232;9.222;2024-03-23T06:32:03;11.70;99.90
20081;DHT22;10200;49.232;9.222;2024-03-23T06:34:29;11.60;99.90
20081;DHT22;10200;49.232;9.222;2024-03-23T06:36:54;11.60;99.90
20081;DHT22;10200;49.232;9.222;2024-03-23T06:39:20;11.60;99.90
20081;DHT22;10200;49.232;9.222;2024-03-23T06:41:52;11.60;99.90
20081;DHT22;10200;49.232;9.222;2024-03-23T06:44:18;11.50;99.90
20081;DHT22;10200;49.232;9.222;2024-03-23T06:46:45;11.30;99.90
20081;DHT22;10200;49.232;9.222;2024-03-23T06:49:10;12.20;99.90
20081;DHT22;10200;49.232;9.222;2024-03-23T06:54:06;11.00;99.90
20081;DHT22;10200;49.232;9.222;2024-03-23T06:56:31;11.00;99.90
20081;DHT22;10200;49.232;9.222;2024-03-23T06:58:59;10.80;99.90
20081;DHT22;10200;49.232;9.222;2024-03-23T07:01:25;10.70;99.90
20081;DHT22;10200;49.232;9.222;2024-03-23T07:03:50;10.60;99.90
20081;DHT22;10200;49.232;9.222;2024-03-23T07:06:16;10.50;99.90
20081;DHT22;10200;49.232;9.222;2024-03-23T07:08:42;10.50;99.90
20081;DHT22;10200;49.232;9.222;2024-03-23T07:11:07;10.50;99.90
20081;DHT22;10200;49.232;9.222;2024-03-23T07:13:33;10.50;99.90
20081;DHT22;10200;49.232;9.222;2024-03-23T07:15:58;10.40;99.90
20081;DHT22;10200;49.232;9.222;2024-03-23T07:18:25;10.40;99.90
20081;DHT22;10200;49.232;9.222;2024-03-23T07:20:55;10.40;99.90
20081;DHT22;10200;49.232;9.222;2024-03-23T07:23:22;10.40;99.90
20081;DHT22;10200;49.232;9.222;2024-03-23T07:28:23;10.30;99.90
20081;DHT22;10200;49.232;9.222;2024-03-23T07:30:58;10.40;99.90
20081;DHT22;10200;49.232;9.222;2024-03-23T07:33:23;10.40;99.90
20081;DHT22;10200;49.232;9.222;2024-03-23T07:35:49;10.40;99.90
20081;DHT22;10200;49.232;9.222;2024-03-23T07:38:15;10.50;99.90
20081;DHT22;10200;49.232;9.222;2024-03-23T07:40:40;10.50;99.90
20081;DHT22;10200;49.232;9.222;2024-03-23T07:43:06;10.60;99.90
20081;DHT22;10200;49.232;9.222;2024-03-23T07:45:31;10.70;99.90
20081;DHT22;10200;49.232;9.222;2024-03-23T07:47:57;10.60;99.90
20081;DHT22;10200;49.232;9.222;2024-03-23T07:50:22;10.60;99.90
20081;DHT22;10200;49.232;9.222;2024-03-23T07:52:48;10.60;99.90
20081;DHT22;10200;49.232;9.222;2024-03-23T07:55:14;10.70;99.90
20081;DHT22;10200;49.232;9.222;2024-03-23T07:57:39;10.80;99.90
20081;DHT22;10200;49.232;9.222;2024-03-23T08:00:05;11.00;99.90
20081;DHT22;10200;49.232;9.222;2024-03-23T08:02:31;11.40;99.90
20081;DHT22;10200;49.232;9.222;2024-03-23T08:04:57;11.70;99.90
20081;DHT22;10200;49.232;9.222;2024-03-23T08:07:23;12.10;99.90
20081;DHT22;10200;49.232;9.222;2024-03-23T08:09:48;12.90;99.90
20081;DHT22;10200;49.232;9.222;2024-03-23T08:12:14;13.90;99.90
20081;DHT22;10200;49.232;9.222;2024-03-23T08:14:39;14.20;90.80
20081;DHT22;10200;49.232;9.222;2024-03-23T08:17:05;13.90;87.30
20081;DHT22;10200;49.232;9.222;2024-03-23T08:19:30;13.60;86.00
20081;DHT22;10200;49.232;9.222;2024-03-23T08:21:56;13.20;85.90
20081;DHT22;10200;49.232;9.222;2024-03-23T08:24:21;12.80;87.00
20081;DHT22;10200;49.232;9.222;2024-03-23T08:26:47;12.70;89.70
20081;DHT22;10200;49.232;9.222;2024-03-23T08:29:13;12.50;88.70
20081;DHT22;10200;49.232;9.222;2024-03-23T08:31:38;12.30;88.20
20081;DHT22;10200;49.232;9.222;2024-03-23T08:34:04;12.10;88.80
20081;DHT22;10200;49.232;9.222;2024-03-23T08:36:30;12.00;89.60
20081;DHT22;10200;49.232;9.222;2024-03-23T08:38:56;11.70;88.10
20081;DHT22;10200;49.232;9.222;2024-03-23T08:41:21;12.10;96.10
20081;DHT22;10200;49.232;9.222;2024-03-23T08:43:47;11.80;88.30
20081;DHT22;10200;49.232;9.222;2024-03-23T08:46:14;11.20;87.20
20081;DHT22;10200;49.232;9.222;2024-03-23T08:48:45;11.50;87.70
20081;DHT22;10200;49.232;9.222;2024-03-23T08:51:13;11.50;87.00
20081;DHT22;10200;49.232;9.222;2024-03-23T08:53:39;11.40;86.50
20081;DHT22;10200;49.232;9.222;2024-03-23T08:56:06;11.40;85.80
20081;DHT22;10200;49.232;9.222;2024-03-23T08:58:33;11.20;87.50
20081;DHT22;10200;49.232;9.222;2024-03-23T09:01:11;11.20;88.00
20081;DHT22;10200;49.232;9.222;2024-03-23T09:03:40;11.30;89.20
20081;DHT22;10200;49.232;9.222;2024-03-23T09:08:35;12.30;90.30
20081;DHT22;10200;49.232;9.222;2024-03-23T09:11:12;13.40;86.10
20081;DHT22;10200;49.232;9.222;2024-03-23T09:13:38;13.50;86.90
20081;DHT22;10200;49.232;9.222;2024-03-23T09:16:05;13.90;80.50
20081;DHT22;10200;49.232;9.222;2024-03-23T09:18:35;14.40;80.80
20081;DHT22;10200;49.232;9.222;2024-03-23T09:21:02;15.00;78.80
20081;DHT22;10200;49.232;9.222;2024-03-23T09:23:28;15.40;75.80
20081;DHT22;10200;49.232;9.222;2024-03-23T09:25:53;15.50;70.70
20081;DHT22;10200;49.232;9.222;2024-03-23T09:28:19;15.70;72.10
20081;DHT22;10200;49.232;9.222;2024-03-23T09:30:45;15.90;70.10
20081;DHT22;10200;49.232;9.222;2024-03-23T09:33:11;15.60;66.20
20081;DHT22;10200;49.232;9.222;2024-03-23T09:35:41;15.20;67.60
20081;DHT22;10200;49.232;9.222;2024-03-23T09:38:07;14.80;66.60
20081;DHT22;10200;49.232;9.222;2024-03-23T09:40:34;14.60;67.00
20081;DHT22;10200;49.232;9.222;2024-03-23T09:43:00;15.00;69.60
20081;DHT22;10200;49.232;9.222;2024-03-23T09:45:29;15.20;66.20
20081;DHT22;10200;49.232;9.222;2024-03-23T09:47:55;15.50;65.20
20081;DHT22;10200;49.232;9.222;2024-03-23T09:50:22;15.50;64.50
20081;DHT22;10200;49.232;9.222;2024-03-23T09:52:47;15.70;63.60
20081;DHT22;10200;49.232;9.222;2024-03-23T09:55:13;15.60;62.70
20081;DHT22;10200;49.232;9.222;2024-03-23T09:57:43;15.70;63.30
20081;DHT22;10200;49.232;9.222;2024-03-23T10:00:09;15.40;60.00
20081;DHT22;10200;49.232;9.222;2024-03-23T10:02:35;15.20;60.90
20081;DHT22;10200;49.232;9.222;2024-03-23T10:05:01;14.80;58.70
20081;DHT22;10200;49.232;9.222;2024-03-23T10:07:26;14.50;60.20
20081;DHT22;10200;49.232;9.222;2024-03-23T10:09:55;14.30;61.20
20081;DHT22;10200;49.232;9.222;2024-03-23T10:12:22;14.10;62.20
20081;DHT22;10200;49.232;9.222;2024-03-23T10:14:49;14.00;62.10
20081;DHT22;10200;49.232;9.222;2024-03-23T10:17:18;13.90;62.30
20081;DHT22;10200;49.232;9.222;2024-03-23T10:19:49;13.90;62.90
20081;DHT22;10200;49.232;9.222;2024-03-23T10:24:43;13.90;63.60
20081;DHT22;10200;49.232;9.222;2024-03-23T10:27:09;13.90;64.40
20081;DHT22;10200;49.232;9.222;2024-03-23T10:29:35;13.70;61.90
20081;DHT22;10200;49.232;9.222;2024-03-23T10:32:10;13.40;63.90
20081;DHT22;10200;49.232;9.222;2024-03-23T10:34:37;13.20;62.30
20081;DHT22;10200;49.232;9.222;2024-03-23T10:37:03;13.00;62.80
20081;DHT22;10200;49.232;9.222;2024-03-23T10:39:40;12.90;62.00
20081;DHT22;10200;49.232;9.222;2024-03-23T10:42:07;12.80;62.30
20081;DHT22;10200;49.232;9.222;2024-03-23T10:44:34;12.70;62.70
20081;DHT22;10200;49.232;9.222;2024-03-23T10:47:03;12.60;62.20
20081;DHT22;10200;49.232;9.222;2024-03-23T10:49:31;12.50;61.80
20081;DHT22;10200;49.232;9.222;2024-03-23T10:51:58;12.30;60.60
20081;DHT22;10200;49.232;9.222;2024-03-23T10:54:25;12.20;62.70
20081;DHT22;10200;49.232;9.222;2024-03-23T10:56:58;12.20;63.70
20081;DHT22;10200;49.232;9.222;2024-03-23T10:59:26;12.10;64.00
20081;DHT22;10200;49.232;9.222;2024-03-23T11:01:59;12.10;65.20
20081;DHT22;10200;49.232;9.222;2024-03-23T11:04:34;12.10;65.80
20081;DHT22;10200;49.232;9.222;2024-03-23T11:07:01;12.10;66.90
20081;DHT22;10200;49.232;9.222;2024-03-23T11:09:41;12.20;67.30
20081;DHT22;10200;49.232;9.222;2024-03-23T11:14:43;12.40;67.20
20081;DHT22;10200;49.232;9.222;2024-03-23T11:17:09;12.50;67.20
20081;DHT22;10200;49.232;9.222;2024-03-23T11:19:38;12.60;66.50
20081;DHT22;10200;49.232;9.222;2024-03-23T11:22:04;12.70;67.50
20081;DHT22;10200;49.232;9.222;2024-03-23T11:24:33;12.90;67.70
20081;DHT22;10200;49.232;9.222;2024-03-23T11:27:00;13.10;66.90
20081;DHT22;10200;49.232;9.222;2024-03-23T11:29:27;13.50;66.30
20081;DHT22;10200;49.232;9.222;2024-03-23T11:31:53;13.70;65.90
20081;DHT22;10200;49.232;9.222;2024-03-23T11:34:20;13.80;65.30
20081;DHT22;10200;49.232;9.222;2024-03-23T11:36:46;13.90;64.20
20081;DHT22;10200;49.232;9.222;2024-03-23T11:39:17;14.10;64.00
20081;DHT22;10200;49.232;9.222;2024-03-23T11:41:50;14.10;63.30
20081;DHT22;10200;49.232;9.222;2024-03-23T11:44:20;14.00;60.80
20081;DHT22;10200;49.232;9.222;2024-03-23T11:46:48;14.00;62.60
20081;DHT22;10200;49.232;9.222;2024-03-23T11:49:39;14.10;62.70
20081;DHT22;10200;49.232;9.222;2024-03-23T11:52:08;14.00;60.60
20081;DHT22;10200;49.232;9.222;2024-03-23T11:54:33;14.00;60.40
20081;DHT22;10200;49.232;9.222;2024-03-23T11:57:04;13.80;60.10
20081;DHT22;10200;49.232;9.222;2024-03-23T11:59:37;13.80;61.10
20081;DHT22;10200;49.232;9.222;2024-03-23T12:02:11;13.70;61.60
20081;DHT22;10200;49.232;9.222;2024-03-23T12:04:37;13.70;62.90
20081;DHT22;10200;49.232;9.222;2024-03-23T12:07:16;13.60;62.30
20081;DHT22;10200;49.232;9.222;2024-03-23T12:09:46;13.60;62.50
20081;DHT22;10200;49.232;9.222;2024-03-23T12:12:16;13.70;62.80
20081;DHT22;10200;49.232;9.222;2024-03-23T12:15:00;13.70;62.80
20081;DHT22;10200;49.232;9.222;2024-03-23T12:17:26;13.70;61.70
20081;DHT22;10200;49.232;9.222;2024-03-23T12:19:52;13.50;61.80
20081;DHT22;10200;49.232;9.222;2024-03-23T12:22:21;13.40;61.60
20081;DHT22;10200;49.232;9.222;2024-03-23T12:24:48;13.20;62.20
20081;DHT22;10200;49.232;9.222;2024-03-23T12:27:13;13.30;63.90
20081;DHT22;10200;49.232;9.222;2024-03-23T12:29:40;13.50;63.90
20081;DHT22;10200;49.232;9.222;2024-03-23T12:32:07;13.70;63.30
20081;DHT22;10200;49.232;9.222;2024-03-23T12:34:32;13.70;62.90
20081;DHT22;10200;49.232;9.222;2024-03-23T12:36:58;13.70;62.90
20081;DHT22;10200;49.232;9.222;2024-03-23T12:39:24;13.70;63.10
20081;DHT22;10200;49.232;9.222;2024-03-23T12:41:50;13.90;63.70
20081;DHT22;10200;49.232;9.222;2024-03-23T12:44:17;14.10;61.60
20081;DHT22;10200;49.232;9.222;2024-03-23T12:46:42;14.00;57.90
20081;DHT22;10200;49.232;9.222;2024-03-23T12:49:08;14.00;58.90
20081;DHT22;10200;49.232;9.222;2024-03-23T12:51:34;14.00;58.10
20081;DHT22;10200;49.232;9.222;2024-03-23T12:53:59;14.20;58.50
20081;DHT22;10200;49.232;9.222;2024-03-23T12:56:25;14.20;57.50
20081;DHT22;10200;49.232;9.222;2024-03-23T12:58:53;14.30;56.70
20081;DHT22;10200;49.232;9.222;2024-03-23T13:01:20;14.30;56.10
20081;DHT22;10200;49.232;9.222;2024-03-23T13:03:47;14.50;56.60
20081;DHT22;10200;49.232;9.222;2024-03-23T13:06:12;14.50;54.10
20081;DHT22;10200;49.232;9.222;2024-03-23T13:08:38;14.40;55.20
20081;DHT22;10200;49.232;9.222;2024-03-23T13:11:06;14.10;56.00
20081;DHT22;10200;49.232;9.222;2024-03-23T13:13:31;13.80;57.10
20081;DHT22;10200;49.232;9.222;2024-03-23T13:15:58;13.50;57.80
20081;DHT22;10200;49.232;9.222;2024-03-23T13:18:24;13.30;58.80
20081;DHT22;10200;49.232;9.222;2024-03-23T13:20:49;13.10;60.50
20081;DHT22;10200;49.232;9.222;2024-03-23T13:23:15;12.90;62.10
20081;DHT22;10200;49.232;9.222;2024-03-23T13:25:41;12.60;64.90
20081;DHT22;10200;49.232;9.222;2024-03-23T13:28:06;12.40;68.00
20081;DHT22;10200;49.232;9.222;2024-03-23T13:30:33;11.90;70.90
20081;DHT22;10200;49.232;9.222;2024-03-23T13:32:58;11.60;74.20
20081;DHT22;10200;49.232;9.222;2024-03-23T13:37:50;11.20;77.90
20081;DHT22;10200;49.232;9.222;2024-03-23T13:40:16;11.30;81.00
20081;DHT22;10200;49.232;9.222;2024-03-23T13:42:41;11.40;81.90
20081;DHT22;10200;49.232;9.222;2024-03-23T13:45:07;11.50;82.50
20081;DHT22;10200;49.232;9.222;2024-03-23T13:47:33;11.80;83.40
20081;DHT22;10200;49.232;9.222;2024-03-23T13:49:58;11.90;83.20
20081;DHT22;10200;49.232;9.222;2024-03-23T13:52:24;11.90;83.10
20081;DHT22;10200;49.232;9.222;2024-03-23T13:54:51;11.80;83.60
20081;DHT22;10200;49.232;9.222;2024-03-23T13:57:17;11.70;83.90
20081;DHT22;10200;49.232;9.222;2024-03-23T13:59:46;11.60;84.60
20081;DHT22;10200;49.232;9.222;2024-03-23T14:02:12;11.50;85.20
20081;DHT22;10200;49.232;9.222;2024-03-23T14:04:40;11.10;84.10
20081;DHT22;10200;49.232;9.222;2024-03-23T14:07:05;10.90;85.40
20081;DHT22;10200;49.232;9.222;2024-03-23T14:09:32;10.80;86.70
20081;DHT22;10200;49.232;9.222;2024-03-23T14:11:58;10.90;89.60
20081;DHT22;10200;49.232;9.222;2024-03-23T14:14:25;11.00;90.50
20081;DHT22;10200;49.232;9.222;2024-03-23T14:16:51;11.10;90.70
20081;DHT22;10200;49.232;9.222;2024-03-23T14:19:16;11.40;91.40
20081;DHT22;10200;49.232;9.222;2024-03-23T14:21:42;11.50;91.00
20081;DHT22;10200;49.232;9.222;2024-03-23T14:24:08;11.70;91.60
20081;DHT22;10200;49.232;9.222;2024-03-23T14:26:34;11.80;91.30
20081;DHT22;10200;49.232;9.222;2024-03-23T14:29:01;12.00;92.70
20081;DHT22;10200;49.232;9.222;2024-03-23T14:31:26;12.10;90.70
20081;DHT22;10200;49.232;9.222;2024-03-23T14:33:52;12.20;90.00
20081;DHT22;10200;49.232;9.222;2024-03-23T14:36:17;12.10;84.80
20081;DHT22;10200;49.232;9.222;2024-03-23T14:38:48;12.00;85.30
20081;DHT22;10200;49.232;9.222;2024-03-23T14:41:13;12.10;85.80
20081;DHT22;10200;49.232;9.222;2024-03-23T14:43:39;12.20;85.20
20081;DHT22;10200;49.232;9.222;2024-03-23T14:48:41;12.30;84.30
20081;DHT22;10200;49.232;9.222;2024-03-23T14:51:08;12.40;83.10
20081;DHT22;10200;49.232;9.222;2024-03-23T14:53:35;12.30;81.70
20081;DHT22;10200;49.232;9.222;2024-03-23T14:56:01;12.30;81.30
20081;DHT22;10200;49.232;9.222;2024-03-23T14:58:28;12.40;80.80
20081;DHT22;10200;49.232;9.222;2024-03-23T15:01:06;12.40;78.90
20081;DHT22;10200;49.232;9.222;2024-03-23T15:03:35;12.20;78.60
20081;DHT22;10200;49.232;9.222;2024-03-23T15:06:02;12.10;77.90
20081;DHT22;10200;49.232;9.222;2024-03-23T15:08:28;11.90;76.80
20081;DHT22;10200;49.232;9.222;2024-03-23T15:10:54;11.80;78.50
20081;DHT22;10200;49.232;9.222;2024-03-23T15:13:20;11.90;78.40
20081;DHT22;10200;49.232;9.222;2024-03-23T15:15:48;12.10;77.90
20081;DHT22;10200;49.232;9.222;2024-03-23T15:18:18;12.00;76.40
20081;DHT22;10200;49.232;9.222;2024-03-23T15:20:54;12.00;77.00
20081;DHT22;10200;49.232;9.222;2024-03-23T15:23:20;12.00;77.80
20081;DHT22;10200;49.232;9.222;2024-03-23T15:25:46;11.90;77.50
20081;DHT22;10200;49.232;9.222;2024-03-23T15:28:12;11.80;77.50
20081;DHT22;10200;49.232;9.222;2024-03-23T15:30:37;11.80;77.10
20081;DHT22;10200;49.232;9.222;2024-03-23T15:33:03;11.60;76.80
20081;DHT22;10200;49.232;9.222;2024-03-23T15:35:28;11.50;76.30
20081;DHT22;10200;49.232;9.222;2024-03-23T15:37:54;11.50;77.10
20081;DHT22;10200;49.232;9.222;2024-03-23T15:40:19;11.50;77.40
20081;DHT22;10200;49.232;9.222;2024-03-23T15:42:45;11.50;77.20
20081;DHT22;10200;49.232;9.222;2024-03-23T15:45:11;11.40;77.70
20081;DHT22;10200;49.232;9.222;2024-03-23T15:47:37;11.50;78.20
20081;DHT22;10200;49.232;9.222;2024-03-23T15:50:02;11.50;78.90
20081;DHT22;10200;49.232;9.222;2024-03-23T15:52:34;11.50;77.30
20081;DHT22;10200;49.232;9.222;2024-03-23T15:55:00;11.50;77.80
20081;DHT22;10200;49.232;9.222;2024-03-23T15:57:26;11.50;78.50
20081;DHT22;10200;49.232;9.222;2024-03-23T15:59:52;11.50;77.90
20081;DHT22;10200;49.232;9.222;2024-03-23T16:02:17;11.60;78.00
20081;DHT22;10200;49.232;9.222;2024-03-23T16:04:43;11.50;77.60
20081;DHT22;10200;49.232;9.222;2024-03-23T16:07:11;11.40;77.70
20081;DHT22;10200;49.232;9.222;2024-03-23T16:09:36;11.40;77.10
20081;DHT22;10200;49.232;9.222;2024-03-23T16:12:03;11.30;77.70
20081;DHT22;10200;49.232;9.222;2024-03-23T16:14:29;11.20;77.60
20081;DHT22;10200;49.232;9.222;2024-03-23T16:16:54;11.00;77.60
20081;DHT22;10200;49.232;9.222;2024-03-23T16:19:20;10.90;77.60
20081;DHT22;10200;49.232;9.222;2024-03-23T16:21:47;10.80;77.60
20081;DHT22;10200;49.232;9.222;2024-03-23T16:24:13;10.70;77.80
20081;DHT22;10200;49.232;9.222;2024-03-23T16:26:38;10.60;77.70
20081;DHT22;10200;49.232;9.222;2024-03-23T16:29:04;10.60;78.50
20081;DHT22;10200;49.232;9.222;2024-03-23T16:31:30;10.50;78.50
20081;DHT22;10200;49.232;9.222;2024-03-23T16:33:56;10.50;78.70
20081;DHT22;10200;49.232;9.222;2024-03-23T16:36:22;10.50;78.90